Time;durP1;ratioP1;P1;durP2;ratioP2;P2;SDS_P1;SDS_P2;PMS_P1;PMS_P2;Temp;Humidity;BMP_temperature;BMP_pressure;BME280_temperature;BME280_humidity;BME280_pressure;Samples;Min_cycle;Max_cycle;Signal;HPM_P1;HPM_P2
2021/03/20 00:01:23;;;;;;;17.40;12.95;;;5.40;66.10;;;;;;5070437;28;20044;-66
2021/03/20 00:03:49;;;;;;;17.83;12.77;;;5.40;65.90;;;;;;5071052;28;20441;-66
2021/03/20 00:06:20;;;;;;;18.17;13.15;;;5.50;65.90;;;;;;5074210;28;20039;-66
2021/03/20 00:08:48;;;;;;;17.85;12.48;;;5.50;65.60;;;;;;5069118;28;20063;-66
2021/03/20 00:11:15;;;;;;;18.52;13.48;;;5.60;65.50;;;;;;5069149;28;20048;-66
2021/03/20 00:13:41;;;;;;;18.73;13.57;;;5.60;65.10;;;;;;5067448;28;20037;-65
2021/03/20 00:16:08;;;;;;;20.92;13.00;;;5.70;64.70;;;;;;5072134;28;20029;-65
2021/03/20 00:18:33;;;;;;;18.05;12.73;;;5.60;64.20;;;;;;5066612;28;20036;-65
2021/03/20 00:21:00;;;;;;;18.40;12.40;;;5.60;64.20;;;;;;5072936;28;20062;-66
2021/03/20 00:23:26;;;;;;;16.65;12.38;;;5.60;64.30;;;;;;5071886;28;20029;-65
2021/03/20 00:25:52;;;;;;;19.65;12.30;;;5.60;63.80;;;;;;5049920;28;20047;-67
2021/03/20 00:28:21;;;;;;;19.67;13.20;;;5.60;63.80;;;;;;5051937;28;20473;-64
2021/03/20 00:30:52;;;;;;;17.88;12.27;;;5.50;64.10;;;;;;5063371;28;20028;-66
2021/03/20 00:33:19;;;;;;;18.25;12.50;;;5.50;64.20;;;;;;5054412;28;20064;-69
2021/03/20 00:35:45;;;;;;;18.52;12.43;;;5.60;63.90;;;;;;5072806;28;20059;-65
2021/03/20 00:38:11;;;;;;;18.58;12.35;;;5.60;64.00;;;;;;5051446;28;20431;-65
2021/03/20 00:40:37;;;;;;;16.67;11.98;;;5.60;63.90;;;;;;5054339;28;20248;-65
2021/03/20 00:43:03;;;;;;;19.27;12.88;;;5.70;63.90;;;;;;5051651;28;20115;-66
2021/03/20 00:45:29;;;;;;;19.13;13.52;;;5.60;63.80;;;;;;5054603;28;20137;-65
2021/03/20 00:48:01;;;;;;;19.73;13.40;;;5.50;63.80;;;;;;5054910;28;20044;-65
2021/03/20 00:50:27;;;;;;;18.75;13.38;;;5.50;64.10;;;;;;5050910;28;20051;-66
2021/03/20 00:52:53;;;;;;;17.25;12.38;;;5.40;64.20;;;;;;5063131;28;20029;-66
2021/03/20 00:55:19;;;;;;;19.33;13.05;;;5.40;64.30;;;;;;5057637;28;20036;-68
2021/03/20 00:57:45;;;;;;;19.40;13.18;;;5.40;64.40;;;;;;5083099;28;20117;-66
2021/03/20 01:00:18;;;;;;;19.02;12.65;;;5.20;64.80;;;;;;5055151;28;20494;-66
2021/03/20 01:02:44;;;;;;;18.88;13.65;;;5.20;64.80;;;;;;5072628;28;20127;-65
2021/03/20 01:05:11;;;;;;;19.88;12.63;;;5.20;64.90;;;;;;5052435;28;20112;-65
2021/03/20 01:07:38;;;;;;;18.98;12.82;;;5.30;64.80;;;;;;5050726;28;20046;-64
2021/03/20 01:10:07;;;;;;;19.13;13.40;;;5.30;64.90;;;;;;5072056;28;20043;-63
2021/03/20 01:12:33;;;;;;;18.85;12.63;;;5.20;64.90;;;;;;5071031;28;20033;-62
2021/03/20 01:14:59;;;;;;;18.40;13.07;;;5.10;65.20;;;;;;5058762;28;20040;-67
2021/03/20 01:17:24;;;;;;;19.60;13.15;;;5.20;65.10;;;;;;5049961;28;20028;-62
2021/03/20 01:19:50;;;;;;;21.23;13.80;;;5.30;65.10;;;;;;5070853;28;20040;-63
2021/03/20 01:22:16;;;;;;;18.55;13.20;;;5.30;64.70;;;;;;5054035;28;20463;-63
2021/03/20 01:24:41;;;;;;;18.92;13.02;;;5.40;64.40;;;;;;5071610;28;20029;-62
2021/03/20 01:27:07;;;;;;;18.83;13.02;;;5.40;64.20;;;;;;5071930;28;20475;-61
2021/03/20 01:29:33;;;;;;;18.70;13.65;;;5.40;64.10;;;;;;5051584;28;20075;-63
2021/03/20 01:31:58;;;;;;;19.10;13.75;;;5.40;64.00;;;;;;5051969;28;20033;-64
2021/03/20 01:34:24;;;;;;;20.92;14.30;;;5.50;63.90;;;;;;5060067;28;20472;-62
2021/03/20 01:36:50;;;;;;;17.67;13.13;;;5.50;63.70;;;;;;5053849;28;20463;-62
2021/03/20 01:39:15;;;;;;;17.45;12.95;;;5.60;63.40;;;;;;5050583;28;20491;-64
2021/03/20 01:41:42;;;;;;;21.17;14.05;;;5.60;63.20;;;;;;5053373;28;20395;-63
2021/03/20 01:44:16;;;;;;;19.60;13.50;;;5.50;63.40;;;;;;5070529;28;20044;-62
2021/03/20 01:46:44;;;;;;;;;;;5.50;63.70;;;;;;5061478;28;20667;-62
2021/03/20 01:49:34;;;;;;;25.58;14.10;;;5.40;63.80;;;;;;5046519;28;19912;-62
2021/03/20 01:52:05;;;;;;;23.98;14.85;;;5.40;64.10;;;;;;5071217;28;20047;-63
2021/03/20 01:54:46;;;;;;;21.90;14.75;;;5.40;64.60;;;;;;5067609;28;20036;-62
2021/03/20 01:57:15;;;;;;;20.20;14.68;;;5.50;65.10;;;;;;5057430;28;20051;-62
2021/03/20 01:59:41;;;;;;;21.30;15.52;;;5.50;65.20;;;;;;5068695;28;20285;-62
2021/03/20 02:02:07;;;;;;;22.88;16.27;;;5.50;65.40;;;;;;5053726;28;20040;-62
2021/03/20 02:04:32;;;;;;;22.38;15.45;;;5.50;65.60;;;;;;5049889;28;20036;-63
2021/03/20 02:06:58;;;;;;;24.77;15.77;;;5.50;65.90;;;;;;5063348;28;20496;-62
2021/03/20 02:09:24;;;;;;;21.35;14.98;;;5.50;66.00;;;;;;5070752;28;20115;-61
2021/03/20 02:12:22;;;;;;;21.85;14.82;;;5.50;65.90;;;;;;5071550;28;20036;-63
2021/03/20 02:15:12;;;;;;;21.30;15.18;;;5.60;65.50;;;;;;5052953;28;20449;-64
2021/03/20 02:18:07;;;;;;;21.80;15.05;;;5.60;65.50;;;;;;5057479;28;20058;-63
2021/03/20 02:21:13;;;;;;;24.35;16.77;;;5.60;65.30;;;;;;5058782;28;20040;-63
2021/03/20 02:24:13;;;;;;;23.33;16.10;;;5.60;65.00;;;;;;5051580;28;20037;-63
2021/03/20 02:27:01;;;;;;;23.92;15.35;;;5.60;65.30;;;;;;5053643;28;20500;-63
2021/03/20 02:29:45;;;;;;;25.23;17.05;;;5.60;65.90;;;;;;5069081;28;20040;-62
2021/03/20 02:32:28;;;;;;;23.80;16.73;;;5.50;65.40;;;;;;5056729;28;20062;-62
2021/03/20 02:35:17;;;;;;;22.58;16.00;;;5.60;66.10;;;;;;5057261;28;20118;-62
2021/03/20 02:37:54;;;;;;;23.60;16.73;;;5.60;66.00;;;;;;5072897;28;20060;-62
2021/03/20 02:40:35;;;;;;;23.48;16.05;;;5.50;65.80;;;;;;5071604;28;20109;-63
2021/03/20 02:43:55;;;;;;;21.67;15.15;;;5.50;65.80;;;;;;5052947;28;20037;-63
2021/03/20 02:46:45;;;;;;;22.90;15.63;;;5.60;66.10;;;;;;4990490;28;20380;-64
2021/03/20 02:49:26;;;;;;;25.00;17.10;;;5.60;66.00;;;;;;5039628;28;20048;-62
2021/03/20 02:51:57;;;;;;;23.80;16.95;;;5.60;66.30;;;;;;5068339;28;20365;-64
2021/03/20 02:54:50;;;;;;;26.85;18.08;;;5.60;66.40;;;;;;5060394;28;20122;-65
2021/03/20 02:57:31;;;;;;;27.90;18.10;;;5.60;66.40;;;;;;5063354;28;20115;-63
2021/03/20 03:00:07;;;;;;;28.15;21.10;;;5.60;66.80;;;;;;5073971;28;20029;-63
2021/03/20 03:02:35;;;;;;;27.45;19.15;;;5.60;67.30;;;;;;5074158;28;20086;-62
2021/03/20 03:05:12;;;;;;;28.02;19.67;;;5.60;67.90;;;;;;5061751;28;20071;-62
2021/03/20 03:08:01;;;;;;;28.02;20.10;;;5.60;68.10;;;;;;5054234;28;20068;-62
2021/03/20 03:10:32;;;;;;;27.40;19.58;;;5.60;68.40;;;;;;5058451;28;20506;-62
2021/03/20 03:13:00;;;;;;;29.02;20.35;;;5.50;68.60;;;;;;5056594;28;20060;-62
2021/03/20 03:15:30;;;;;;;30.27;21.33;;;5.50;68.50;;;;;;5068305;28;20131;-61
2021/03/20 03:18:10;;;;;;;28.80;20.48;;;5.50;68.80;;;;;;5065257;28;20027;-62
2021/03/20 03:20:46;;;;;;;30.55;22.40;;;5.40;68.90;;;;;;5073515;28;20373;-62
2021/03/20 03:23:19;;;;;;;30.23;22.30;;;5.40;69.50;;;;;;5057615;28;20028;-62
2021/03/20 03:25:49;;;;;;;27.88;19.05;;;5.40;69.30;;;;;;5056048;28;20040;-62
2021/03/20 03:28:20;;;;;;;29.40;21.20;;;5.30;69.60;;;;;;5055961;28;20059;-62
2021/03/20 03:30:46;;;;;;;28.50;20.35;;;5.30;69.40;;;;;;5062792;28;20045;-62
2021/03/20 03:33:23;;;;;;;28.63;20.60;;;5.30;69.30;;;;;;5053028;28;20116;-62
2021/03/20 03:35:53;;;;;;;28.77;21.08;;;5.30;69.30;;;;;;5072666;28;20044;-62
2021/03/20 03:38:33;;;;;;;28.70;21.38;;;5.20;68.30;;;;;;5072737;28;20055;-61
2021/03/20 03:41:16;;;;;;;28.45;20.33;;;5.20;69.10;;;;;;5056086;28;20052;-61
2021/03/20 03:43:44;;;;;;;28.00;19.83;;;5.20;68.60;;;;;;5052638;28;20086;-64
2021/03/20 03:46:10;;;;;;;27.02;20.58;;;5.20;68.30;;;;;;5052983;28;20045;-62
2021/03/20 03:48:36;;;;;;;29.60;20.52;;;5.20;68.10;;;;;;5072274;28;20040;-62
2021/03/20 03:51:17;;;;;;;27.70;20.55;;;5.10;67.70;;;;;;5071742;28;20029;-63
2021/03/20 03:53:43;;;;;;;30.95;20.92;;;5.00;68.10;;;;;;5073021;28;20032;-62
2021/03/20 03:56:35;;;;;;;28.55;20.65;;;5.10;68.00;;;;;;5055481;28;20041;-63
2021/03/20 03:59:14;;;;;;;29.58;21.08;;;5.00;67.80;;;;;;5053632;28;20154;-63
2021/03/20 04:02:11;;;;;;;30.00;21.35;;;5.00;67.90;;;;;;5054614;28;20158;-62
2021/03/20 04:04:50;;;;;;;31.00;21.13;;;5.00;67.80;;;;;;5052963;28;20048;-61
2021/03/20 04:07:40;;;;;;;30.63;20.92;;;5.00;67.30;;;;;;5067690;28;20044;-63
2021/03/20 04:10:14;;;;;;;30.20;21.60;;;4.80;67.80;;;;;;5053663;28;20041;-63
2021/03/20 04:13:05;;;;;;;33.25;22.48;;;4.90;68.20;;;;;;5061993;28;20127;-63
2021/03/20 04:15:47;;;;;;;30.52;20.52;;;4.90;68.50;;;;;;5072041;28;20145;-62
2021/03/20 04:18:34;;;;;;;31.33;21.95;;;4.90;68.30;;;;;;5072946;28;20041;-63
2021/03/20 04:21:18;;;;;;;32.40;22.30;;;4.90;68.90;;;;;;5073054;28;20047;-63
2021/03/20 04:23:53;;;;;;;31.52;23.05;;;4.90;68.40;;;;;;5071993;28;20037;-63
2021/03/20 04:26:46;;;;;;;28.20;21.05;;;4.80;68.40;;;;;;5073466;28;20090;-62
2021/03/20 04:29:21;;;;;;;31.80;22.15;;;4.80;68.10;;;;;;5065982;28;20097;-63
2021/03/20 04:31:54;;;;;;;29.42;21.50;;;4.80;68.60;;;;;;5088952;28;20304;-62
2021/03/20 04:34:38;;;;;;;34.05;23.40;;;4.80;68.10;;;;;;5072628;28;20049;-63
2021/03/20 04:37:10;;;;;;;30.00;20.67;;;4.80;67.90;;;;;;5054802;28;20082;-63
2021/03/20 04:39:41;;;;;;;29.75;21.45;;;4.60;67.60;;;;;;5072044;28;20063;-62
2021/03/20 04:42:07;;;;;;;29.58;20.83;;;4.40;68.10;;;;;;5072422;28;20077;-63
2021/03/20 04:44:37;;;;;;;31.95;21.20;;;4.30;69.00;;;;;;5075168;28;20110;-62
2021/03/20 04:47:17;;;;;;;30.33;21.55;;;4.30;69.50;;;;;;5072607;28;20078;-63
2021/03/20 04:49:45;;;;;;;30.63;22.70;;;4.30;70.10;;;;;;5071423;28;20090;-62
2021/03/20 04:52:40;;;;;;;30.58;20.85;;;4.40;70.30;;;;;;5050789;28;20052;-62
2021/03/20 04:55:08;;;;;;;33.40;20.98;;;4.40;70.40;;;;;;5047833;28;20480;-61
2021/03/20 04:57:57;;;;;;;30.10;20.70;;;4.40;70.20;;;;;;5053513;28;20046;-62
2021/03/20 05:00:26;;;;;;;30.58;21.30;;;4.50;70.00;;;;;;5053743;28;20039;-63
2021/03/20 05:03:16;;;;;;;27.38;20.52;;;4.40;69.70;;;;;;5071840;28;20036;-62
2021/03/20 05:06:07;;;;;;;30.80;19.58;;;4.30;68.80;;;;;;5037201;28;20346;-62
2021/03/20 05:08:45;;;;;;;26.77;18.88;;;4.20;68.50;;;;;;5044806;28;20052;-62
2021/03/20 05:11:30;;;;;;;27.70;18.20;;;4.10;69.00;;;;;;5051970;28;20051;-63
2021/03/20 05:14:10;;;;;;;26.38;18.80;;;4.00;68.70;;;;;;5059589;28;20048;-62
2021/03/20 05:16:49;;;;;;;26.50;19.52;;;4.00;68.40;;;;;;5070756;28;20113;-62
2021/03/20 05:19:16;;;;;;;27.23;18.10;;;4.00;68.50;;;;;;5071655;28;20515;-62
2021/03/20 05:21:44;;;;;;;23.95;16.95;;;4.10;68.40;;;;;;5051421;28;20032;-62
2021/03/20 05:24:18;;;;;;;23.70;16.45;;;4.10;67.60;;;;;;5067364;28;20025;-62
2021/03/20 05:26:44;;;;;;;22.83;14.35;;;4.10;66.10;;;;;;5071092;28;20055;-63
2021/03/20 05:29:09;;;;;;;26.80;14.02;;;4.00;66.10;;;;;;5058093;28;20512;-63
2021/03/20 05:31:35;;;;;;;18.65;11.95;;;4.00;65.30;;;;;;5052485;28;20086;-64
2021/03/20 05:34:07;;;;;;;21.63;11.50;;;3.90;65.40;;;;;;5071200;28;20040;-61
2021/03/20 05:36:33;;;;;;;19.05;10.75;;;3.80;64.80;;;;;;5081521;28;20044;-64
2021/03/20 05:38:58;;;;;;;15.18;8.75;;;3.70;64.50;;;;;;5073011;28;20037;-61
2021/03/20 05:41:42;;;;;;;14.50;8.77;;;3.70;64.50;;;;;;5052912;28;20051;-62
2021/03/20 05:44:11;;;;;;;17.05;8.35;;;3.70;63.60;;;;;;5051417;28;20512;-62
2021/03/20 05:47:02;;;;;;;14.90;7.28;;;3.70;63.20;;;;;;5063498;28;20119;-62
2021/03/20 05:50:05;;;;;;;11.77;6.25;;;3.60;62.60;;;;;;5070767;28;20123;-62
2021/03/20 05:52:49;;;;;;;13.18;6.38;;;3.60;62.50;;;;;;5069543;28;20037;-68
2021/03/20 05:55:34;;;;;;;10.60;5.55;;;3.70;62.00;;;;;;5053337;28;20367;-62
2021/03/20 05:58:02;;;;;;;12.20;5.32;;;3.60;60.90;;;;;;5064885;28;20546;-63
2021/03/20 06:00:56;;;;;;;8.55;5.00;;;3.50;60.60;;;;;;5072739;28;20431;-62
2021/03/20 06:03:37;;;;;;;10.55;4.85;;;3.50;60.50;;;;;;5058362;28;20048;-63
2021/03/20 06:06:36;;;;;;;10.35;5.07;;;3.50;60.80;;;;;;5055673;28;20064;-62
2021/03/20 06:09:13;;;;;;;14.88;5.32;;;3.50;60.30;;;;;;5074465;28;20507;-62
2021/03/20 06:11:39;;;;;;;10.55;5.20;;;3.50;60.90;;;;;;5074403;28;20154;-61
2021/03/20 06:14:25;;;;;;;14.57;5.45;;;3.70;60.00;;;;;;5074965;28;20111;-62
2021/03/20 06:17:29;;;;;;;14.32;5.45;;;3.70;60.40;;;;;;5056597;28;20420;-62
2021/03/20 06:20:20;;;;;;;11.85;5.78;;;3.80;60.20;;;;;;5056110;28;20071;-65
2021/03/20 06:22:59;;;;;;;12.98;5.85;;;3.80;60.70;;;;;;5075002;28;20132;-63
2021/03/20 06:25:36;;;;;;;11.80;5.95;;;3.90;60.80;;;;;;5075662;28;20052;-64
2021/03/20 06:28:02;;;;;;;14.73;6.10;;;3.90;60.90;;;;;;5065256;28;20060;-62
2021/03/20 06:30:30;;;;;;;13.45;6.32;;;4.00;60.80;;;;;;5046835;28;20060;-63
2021/03/20 06:33:07;;;;;;;11.77;6.25;;;3.90;60.30;;;;;;5074486;28;20067;-61
2021/03/20 06:35:44;;;;;;;12.80;6.03;;;3.80;60.70;;;;;;5074741;28;20036;-66
2021/03/20 06:38:38;;;;;;;12.52;6.18;;;3.90;60.90;;;;;;5074508;28;20487;-62
2021/03/20 06:41:39;;;;;;;9.70;5.70;;;3.90;61.10;;;;;;5054413;28;20477;-62
2021/03/20 06:44:15;;;;;;;10.05;5.55;;;3.90;60.90;;;;;;5050119;28;20082;-62
2021/03/20 06:46:42;;;;;;;10.82;5.25;;;3.80;61.20;;;;;;5068146;28;20036;-61
2021/03/20 06:49:23;;;;;;;8.05;4.78;;;4.00;60.10;;;;;;5056240;28;20044;-62
2021/03/20 06:51:49;;;;;;;8.80;4.88;;;4.00;60.00;;;;;;5073667;28;20036;-62
2021/03/20 06:54:19;;;;;;;11.75;4.85;;;4.00;60.60;;;;;;5074725;28;20050;-62
2021/03/20 06:56:47;;;;;;;10.65;4.40;;;4.00;59.80;;;;;;5073907;28;20043;-62
2021/03/20 06:59:14;;;;;;;8.00;4.65;;;4.10;60.00;;;;;;5056225;28;20055;-62
2021/03/20 07:01:51;;;;;;;9.23;4.95;;;4.20;59.40;;;;;;5038561;28;20115;-63
2021/03/20 07:04:35;;;;;;;8.90;4.88;;;4.30;59.50;;;;;;5066802;28;20060;-63
2021/03/20 07:07:09;;;;;;;9.70;4.68;;;4.30;59.50;;;;;;5074798;28;20132;-62
2021/03/20 07:09:38;;;;;;;10.15;4.80;;;4.40;59.60;;;;;;5073603;28;20106;-67
2021/03/20 07:12:03;;;;;;;7.28;4.47;;;4.50;59.00;;;;;;5051336;28;20047;-63
2021/03/20 07:14:46;;;;;;;10.25;5.45;;;4.40;60.00;;;;;;5065679;28;20033;-63
2021/03/20 07:17:18;;;;;;;8.90;4.85;;;4.50;59.70;;;;;;5070438;28;20067;-63
2021/03/20 07:20:10;;;;;;;9.68;4.93;;;4.50;59.20;;;;;;5070245;28;20045;-64
2021/03/20 07:22:40;;;;;;;10.32;4.85;;;4.40;59.50;;;;;;5068533;28;20029;-62
2021/03/20 07:25:31;;;;;;;7.72;4.53;;;4.40;60.20;;;;;;5070293;28;20111;-62
2021/03/20 07:28:09;;;;;;;10.55;4.53;;;4.40;60.20;;;;;;5070416;28;20033;-63
2021/03/20 07:30:50;;;;;;;10.90;4.80;;;4.40;60.00;;;;;;5053263;28;20032;-65
2021/03/20 07:33:25;;;;;;;12.27;4.72;;;4.50;60.50;;;;;;5071418;28;20036;-63
2021/03/20 07:35:51;;;;;;;13.15;4.82;;;4.60;59.60;;;;;;5053823;28;20493;-63
2021/03/20 07:38:29;;;;;;;9.65;4.72;;;4.50;60.20;;;;;;5055611;28;20045;-62
2021/03/20 07:41:06;;;;;;;10.95;5.05;;;4.50;60.50;;;;;;5068667;28;20055;-63
2021/03/20 07:43:32;;;;;;;7.43;4.72;;;4.50;62.70;;;;;;5067661;28;20070;-63
2021/03/20 07:46:12;;;;;;;9.43;5.00;;;4.60;63.80;;;;;;5072214;28;20032;-63
2021/03/20 07:48:39;;;;;;;10.50;5.07;;;4.70;63.60;;;;;;5053747;28;20174;-64
2021/03/20 07:51:16;;;;;;;10.02;4.68;;;4.80;61.20;;;;;;5070065;28;20038;-63
2021/03/20 07:53:51;;;;;;;10.73;4.57;;;4.70;62.50;;;;;;5072116;28;20362;-63
2021/03/20 07:56:36;;;;;;;9.43;4.93;;;4.70;60.80;;;;;;5072859;28;20048;-62
2021/03/20 07:59:23;;;;;;;9.30;4.78;;;4.60;61.60;;;;;;5069120;28;20408;-63
2021/03/20 08:01:52;;;;;;;8.18;4.88;;;4.40;63.40;;;;;;5071461;28;20369;-63
2021/03/20 08:04:18;;;;;;;14.93;7.38;;;4.70;63.70;;;;;;5054315;28;20044;-62
2021/03/20 08:06:50;;;;;;;10.13;4.65;;;5.10;62.80;;;;;;5072124;28;20396;-63
2021/03/20 08:09:22;;;;;;;11.68;4.47;;;5.50;61.00;;;;;;5064808;28;20055;-63
2021/03/20 08:11:50;;;;;;;10.45;6.10;;;6.20;59.00;;;;;;5047123;28;20065;-62
2021/03/20 08:14:24;;;;;;;7.75;4.35;;;7.00;55.80;;;;;;5062444;28;20137;-64
2021/03/20 08:16:50;;;;;;;10.25;5.28;;;8.00;52.40;;;;;;5067186;28;20034;-64
2021/03/20 08:19:18;;;;;;;9.93;5.53;;;8.50;50.00;;;;;;5034787;28;20127;-63
2021/03/20 08:22:07;;;;;;;12.88;6.32;;;9.20;48.50;;;;;;5060371;28;20059;-63
2021/03/20 08:24:46;;;;;;;9.35;6.00;;;10.40;46.30;;;;;;5045467;28;20143;-63
2021/03/20 08:27:22;;;;;;;9.57;6.93;;;12.00;41.60;;;;;;5064944;28;20117;-63
2021/03/20 08:30:06;;;;;;;12.68;6.97;;;13.40;37.70;;;;;;5059222;28;20043;-63
2021/03/20 08:33:02;;;;;;;11.18;7.25;;;15.00;35.60;;;;;;5048774;28;20123;-63
2021/03/20 08:36:05;;;;;;;8.93;4.75;;;16.40;32.90;;;;;;5041917;28;20037;-63
2021/03/20 08:38:59;;;;;;;8.10;4.05;;;15.60;29.80;;;;;;5062327;28;20492;-63
2021/03/20 08:41:34;;;;;;;10.40;7.07;;;14.00;32.30;;;;;;5044618;28;20082;-63
2021/03/20 08:44:28;;;;;;;8.45;4.13;;;12.90;34.50;;;;;;5061761;28;20063;-64
2021/03/20 08:47:34;;;;;;;7.70;3.88;;;13.00;33.60;;;;;;5062301;28;20107;-63
2021/03/20 08:50:14;;;;;;;8.70;4.72;;;11.70;35.30;;;;;;5061703;28;20086;-64
2021/03/20 08:52:55;;;;;;;8.50;3.95;;;10.80;36.60;;;;;;5061867;28;20033;-64
2021/03/20 08:55:58;;;;;;;7.70;3.90;;;10.30;36.90;;;;;;5064694;28;20028;-63
2021/03/20 08:58:34;;;;;;;6.07;3.75;;;9.70;38.00;;;;;;5052169;28;20041;-63
2021/03/20 09:01:17;;;;;;;9.43;5.88;;;9.20;39.20;;;;;;5059685;28;20045;-64
2021/03/20 09:03:51;;;;;;;10.32;4.35;;;9.10;40.20;;;;;;5044318;28;20068;-66
2021/03/20 09:06:43;;;;;;;8.98;3.97;;;9.10;40.60;;;;;;5064352;28;20043;-63
2021/03/20 09:09:27;;;;;;;6.75;4.05;;;8.90;41.40;;;;;;5062496;28;20181;-63
2021/03/20 09:12:31;;;;;;;8.43;4.22;;;8.60;41.00;;;;;;5043226;28;20037;-64
2021/03/20 09:14:57;;;;;;;12.52;3.65;;;8.30;40.90;;;;;;4964766;28;20034;-64
2021/03/20 09:17:37;;;;;;;8.95;4.00;;;8.20;42.60;;;;;;5040516;28;20559;-64
2021/03/20 09:20:06;;;;;;;7.63;4.07;;;8.00;41.20;;;;;;5062203;28;20041;-64
2021/03/20 09:22:33;;;;;;;9.73;4.43;;;7.60;42.20;;;;;;5062397;28;20552;-63
2021/03/20 09:25:06;;;;;;;10.38;4.13;;;7.40;42.60;;;;;;5048869;28;20418;-63
2021/03/20 09:27:59;;;;;;;8.10;3.70;;;7.40;42.20;;;;;;5062731;28;20033;-65
2021/03/20 09:30:33;;;;;;;8.95;4.68;;;7.30;42.10;;;;;;5041874;28;20503;-64
2021/03/20 09:33:00;;;;;;;;;;;7.00;42.20;;;;;;5064179;28;20024;-63
2021/03/20 09:35:40;;;;;;;11.60;4.43;;;6.80;43.60;;;;;;5061213;28;20379;-63
2021/03/20 09:38:06;;;;;;;11.73;5.18;;;6.70;42.80;;;;;;5065599;28;20111;-64
2021/03/20 09:40:41;;;;;;;9.15;4.70;;;6.50;44.00;;;;;;5046684;28;20166;-63
2021/03/20 09:43:19;;;;;;;11.85;5.40;;;6.60;44.70;;;;;;5063882;28;20041;-64
2021/03/20 09:45:46;;;;;;;11.13;5.03;;;6.90;44.50;;;;;;5045570;28;20033;-64
2021/03/20 09:48:41;;;;;;;10.98;4.90;;;7.20;43.70;;;;;;5072835;28;20123;-66
2021/03/20 09:51:45;;;;;;;11.43;5.60;;;7.50;43.00;;;;;;5048968;28;20059;-64
2021/03/20 09:54:42;;;;;;;9.80;5.15;;;7.50;42.10;;;;;;5058014;28;20556;-64
2021/03/20 09:57:12;;;;;;;12.82;5.00;;;7.40;41.20;;;;;;5047151;28;20095;-63
2021/03/20 09:59:38;;;;;;;10.70;5.05;;;7.50;41.60;;;;;;5046905;28;20102;-64
2021/03/20 10:02:15;;;;;;;11.20;5.28;;;7.80;41.50;;;;;;5057410;28;20068;-64
2021/03/20 10:04:53;;;;;;;13.68;4.90;;;8.00;41.40;;;;;;5059008;28;20032;-64
2021/03/20 10:07:22;;;;;;;11.52;5.20;;;7.80;41.30;;;;;;5058680;28;20044;-64
2021/03/20 10:10:13;;;;;;;9.93;4.80;;;7.40;40.90;;;;;;5044515;28;20029;-64
2021/03/20 10:12:42;;;;;;;8.07;4.57;;;7.20;41.20;;;;;;5063007;28;20491;-62
2021/03/20 10:15:16;;;;;;;10.63;4.30;;;7.40;41.60;;;;;;5041086;28;20052;-64
2021/03/20 10:18:14;;;;;;;14.32;5.05;;;7.40;41.00;;;;;;5062306;28;20120;-64
2021/03/20 10:20:45;;;;;;;8.73;4.90;;;7.40;41.20;;;;;;5047362;28;20043;-63
2021/03/20 10:23:39;;;;;;;12.55;4.88;;;7.40;41.70;;;;;;5058438;28;20071;-64
2021/03/20 10:26:15;;;;;;;14.25;5.75;;;7.20;42.70;;;;;;5061541;28;20106;-65
2021/03/20 10:28:49;;;;;;;12.18;5.20;;;7.30;42.50;;;;;;5042314;28;20187;-64
2021/03/20 10:31:15;;;;;;;10.93;4.88;;;7.50;42.10;;;;;;5062305;28;20116;-64
2021/03/20 10:33:46;;;;;;;10.45;4.70;;;7.40;40.40;;;;;;5040548;28;20040;-64
2021/03/20 10:36:15;;;;;;;10.95;5.15;;;7.40;40.40;;;;;;5046526;28;20029;-64
2021/03/20 10:38:42;;;;;;;8.63;4.50;;;7.90;40.50;;;;;;5062187;28;20040;-64
2021/03/20 10:41:28;;;;;;;22.88;13.48;;;8.20;39.10;;;;;;5043677;28;20446;-64
2021/03/20 10:44:12;;;;;;;11.93;5.57;;;8.30;38.60;;;;;;5059081;28;20086;-65
2021/03/20 10:46:40;;;;;;;11.57;4.80;;;8.40;38.40;;;;;;5043528;28;20033;-64
2021/03/20 10:49:25;;;;;;;10.32;4.80;;;8.20;38.00;;;;;;5064294;28;20037;-64
2021/03/20 10:51:54;;;;;;;10.35;4.55;;;8.00;38.80;;;;;;5065463;28;20064;-64
2021/03/20 10:54:50;;;;;;;8.93;4.97;;;7.70;38.50;;;;;;5050759;28;20423;-63
2021/03/20 10:57:21;;;;;;;7.20;4.28;;;7.50;39.40;;;;;;5052214;28;20041;-63
2021/03/20 10:59:48;;;;;;;11.75;4.93;;;7.70;39.60;;;;;;5064400;28;20047;-62
2021/03/20 11:02:21;;;;;;;10.60;4.63;;;8.00;39.40;;;;;;5066189;28;20029;-62
2021/03/20 11:04:49;;;;;;;8.68;4.50;;;8.10;39.50;;;;;;5066001;28;20025;-63
2021/03/20 11:07:21;;;;;;;12.20;4.97;;;8.00;38.70;;;;;;5063360;28;20040;-63
2021/03/20 11:09:47;;;;;;;11.63;4.53;;;8.00;38.80;;;;;;5063096;28;20481;-63
2021/03/20 11:12:35;;;;;;;8.88;4.63;;;8.20;38.50;;;;;;5047669;28;20059;-63
2021/03/20 11:15:01;;;;;;;8.27;4.28;;;8.70;37.90;;;;;;5063133;28;20127;-64
2021/03/20 11:17:30;;;;;;;8.15;4.57;;;8.90;37.30;;;;;;5066325;28;20032;-63
2021/03/20 11:20:09;;;;;;;9.73;5.05;;;8.50;37.60;;;;;;5063600;28;20045;-63
2021/03/20 11:22:39;;;;;;;9.32;4.82;;;8.30;38.00;;;;;;5064627;28;20028;-67
2021/03/20 11:25:17;;;;;;;8.77;4.20;;;8.30;38.20;;;;;;5067635;28;20059;-63
2021/03/20 11:27:43;;;;;;;9.25;4.20;;;8.50;36.70;;;;;;5068109;28;20021;-64
2021/03/20 11:30:20;;;;;;;10.68;4.65;;;8.90;36.00;;;;;;5067383;28;20080;-64
2021/03/20 11:32:48;;;;;;;7.57;3.97;;;9.30;35.60;;;;;;5063646;28;20031;-63
2021/03/20 11:35:32;;;;;;;11.20;4.35;;;9.00;35.10;;;;;;5073053;28;20173;-63
2021/03/20 11:38:02;;;;;;;8.15;4.32;;;8.70;35.10;;;;;;5058636;28;20036;-63
2021/03/20 11:40:37;;;;;;;9.52;4.35;;;8.60;36.00;;;;;;5062974;28;20029;-62
2021/03/20 11:43:27;;;;;;;8.98;4.57;;;8.80;35.10;;;;;;5071363;28;20081;-64
2021/03/20 11:46:05;;;;;;;8.00;4.72;;;9.00;34.80;;;;;;5052701;28;20508;-63
2021/03/20 11:48:50;;;;;;;18.10;5.35;;;8.90;35.60;;;;;;5038967;28;20044;-63
2021/03/20 11:51:32;;;;;;;9.93;4.60;;;8.90;35.40;;;;;;5046569;28;20543;-63
2021/03/20 11:54:04;;;;;;;8.93;4.72;;;8.50;34.70;;;;;;5057374;28;20056;-63
2021/03/20 11:56:38;;;;;;;9.20;4.57;;;8.20;35.40;;;;;;5051330;28;20028;-65
2021/03/20 11:59:31;;;;;;;9.90;4.97;;;8.20;35.60;;;;;;5065327;28;20040;-63
2021/03/20 12:01:57;;;;;;;8.35;5.25;;;8.40;35.50;;;;;;5036134;28;20494;-63
2021/03/20 12:04:27;;;;;;;11.90;5.15;;;8.80;35.00;;;;;;5056391;28;20484;-64
2021/03/20 12:07:18;;;;;;;8.35;5.15;;;9.20;34.60;;;;;;5062454;28;20031;-62
2021/03/20 12:09:44;;;;;;;7.38;4.43;;;9.00;34.80;;;;;;5039036;28;20439;-64
2021/03/20 12:12:10;;;;;;;7.95;5.00;;;8.60;33.60;;;;;;5053716;28;20037;-63
2021/03/20 12:14:48;;;;;;;9.32;5.20;;;8.20;33.80;;;;;;5044434;28;20496;-64
2021/03/20 12:17:17;;;;;;;8.80;4.88;;;8.00;34.10;;;;;;5067243;28;20484;-63
2021/03/20 12:20:07;;;;;;;10.07;5.03;;;8.20;34.60;;;;;;5055447;28;20140;-63
2021/03/20 12:22:37;;;;;;;10.02;6.07;;;8.10;35.00;;;;;;5064257;28;20033;-64
2021/03/20 12:25:21;;;;;;;8.90;4.78;;;8.30;34.80;;;;;;5065287;28;20071;-63
2021/03/20 12:27:49;;;;;;;17.23;5.45;;;8.60;33.00;;;;;;5055620;28;20041;-63
2021/03/20 12:30:30;;;;;;;10.52;5.00;;;8.70;33.20;;;;;;5066339;28;20045;-63
2021/03/20 12:33:11;;;;;;;9.05;5.40;;;9.00;32.90;;;;;;5063472;28;20043;-62
2021/03/20 12:35:46;;;;;;;8.80;5.10;;;9.30;33.20;;;;;;5055070;28;20110;-64
2021/03/20 12:38:17;;;;;;;15.95;5.68;;;9.30;33.00;;;;;;5048498;28;20041;-63
2021/03/20 12:41:04;;;;;;;12.15;5.53;;;9.30;33.60;;;;;;5061879;28;20047;-62
2021/03/20 12:43:50;;;;;;;9.02;4.85;;;9.30;32.80;;;;;;5055683;28;20123;-62
2021/03/20 12:46:16;;;;;;;11.80;5.75;;;9.10;33.00;;;;;;5050390;28;20044;-64
2021/03/20 12:48:43;;;;;;;13.93;5.18;;;9.00;32.60;;;;;;5070786;28;20043;-63
2021/03/20 12:51:20;;;;;;;8.60;4.50;;;9.00;32.50;;;;;;5045569;28;20147;-66
2021/03/20 12:53:47;;;;;;;8.88;4.43;;;9.20;31.20;;;;;;5059377;28;20109;-69
2021/03/20 12:56:12;;;;;;;8.65;4.80;;;8.80;31.00;;;;;;5038308;28;20140;-63
2021/03/20 12:58:38;;;;;;;8.35;5.43;;;8.60;31.00;;;;;;5047717;28;20471;-65
2021/03/20 13:01:04;;;;;;;9.15;5.30;;;8.80;31.30;;;;;;5059425;28;20025;-62
2021/03/20 13:03:34;;;;;;;10.40;4.75;;;8.90;31.30;;;;;;5052854;28;20396;-63
2021/03/20 13:06:00;;;;;;;6.95;4.47;;;8.90;31.50;;;;;;5050918;28;20029;-64
2021/03/20 13:08:44;;;;;;;9.40;4.38;;;9.10;31.00;;;;;;5070959;28;20048;-62
2021/03/20 13:11:23;;;;;;;8.95;4.40;;;9.20;29.90;;;;;;5053000;28;20131;-62
2021/03/20 13:13:49;;;;;;;8.15;4.70;;;9.40;29.50;;;;;;5069530;28;20111;-63
2021/03/20 13:16:15;;;;;;;9.10;5.85;;;9.40;29.80;;;;;;5071014;28;20063;-63
2021/03/20 13:18:41;;;;;;;9.45;4.90;;;9.50;30.10;;;;;;5071126;28;20051;-63
2021/03/20 13:21:06;;;;;;;8.85;4.90;;;9.60;30.00;;;;;;5053506;28;20078;-66
2021/03/20 13:23:32;;;;;;;8.15;4.38;;;9.40;29.80;;;;;;5057490;28;20060;-65
2021/03/20 13:25:58;;;;;;;9.20;5.13;;;9.00;29.40;;;;;;5071059;28;20127;-63
2021/03/20 13:28:24;;;;;;;9.10;4.75;;;8.70;29.70;;;;;;5070614;28;20047;-64
2021/03/20 13:30:49;;;;;;;10.45;5.25;;;8.60;30.40;;;;;;5070851;28;20039;-64